Time;durP1;ratioP1;P1;durP2;ratioP2;P2;SDS_P1;SDS_P2;PMS_P1;PMS_P2;Temp;Humidity;BMP_temperature;BMP_pressure;BME280_temperature;BME280_humidity;BME280_pressure;Samples;Min_cycle;Max_cycle;Signal;HPM_P1;HPM_P2
2023/03/16 00:00:41;;;;;;;9.30;2.30;;;;;;;;;;5019457;28;20421;-79
2023/03/16 00:03:17;;;;;;;8.82;2.30;;;;;;;;;;5034985;28;20450;-79
2023/03/16 00:05:46;;;;;;;15.57;2.53;;;;;;;;;;5017974;28;20437;-79
2023/03/16 00:08:19;;;;;;;7.82;2.20;;;;;;;;;;5018266;28;20427;-79
2023/03/16 00:10:47;;;;;;;9.20;2.40;;;;;;;;;;5016297;28;20510;-79
2023/03/16 00:13:16;;;;;;;9.65;2.50;;;;;;;;;;5032739;28;20797;-79
2023/03/16 00:15:54;;;;;;;10.87;2.27;;;;;;;;;;5036402;28;20432;-80
2023/03/16 00:18:25;;;;;;;10.52;2.50;;;;;;;;;;5025808;28;20416;-80
2023/03/16 00:20:54;;;;;;;10.15;2.50;;;;;;;;;;5025743;28;20435;-79
2023/03/16 00:23:25;;;;;;;10.77;2.63;;;;;;;;;;5022919;28;20419;-80
2023/03/16 00:25:54;;;;;;;12.48;2.85;;;;;;;;;;5033305;28;20428;-79
2023/03/16 00:28:27;;;;;;;11.57;2.67;;;;;;;;;;5020400;28;20423;-79
2023/03/16 00:30:57;;;;;;;11.65;2.65;;;;;;;;;;5035781;28;20427;-79
2023/03/16 00:33:36;;;;;;;10.88;2.75;;;;;;;;;;5018316;28;20446;-79
2023/03/16 00:36:10;;;;;;;10.65;2.70;;;;;;;;;;5017581;28;20438;-79
2023/03/16 00:38:39;;;;;;;14.57;3.00;;;;;;;;;;5036119;28;20903;-79
2023/03/16 00:41:08;;;;;;;12.77;3.20;;;;;;;;;;5021444;28;20422;-79
2023/03/16 00:43:43;;;;;;;15.18;2.97;;;;;;;;;;5020803;28;20424;-79
2023/03/16 00:46:14;;;;;;;9.75;2.70;;;;;;;;;;5036427;28;20442;-80
2023/03/16 00:48:44;;;;;;;11.85;3.25;;;;;;;;;;5020005;28;20431;-79
2023/03/16 00:51:13;;;;;;;9.82;2.85;;;;;;;;;;5019233;28;20435;-79
2023/03/16 00:53:42;;;;;;;12.82;2.80;;;;;;;;;;5025057;28;20935;-80
2023/03/16 00:56:15;;;;;;;10.90;2.70;;;;;;;;;;5024512;28;20944;-79
2023/03/16 00:58:43;;;;;;;10.35;2.60;;;;;;;;;;5017534;28;20455;-79
2023/03/16 01:01:13;;;;;;;10.50;2.50;;;;;;;;;;5025800;28;20448;-79
2023/03/16 01:03:41;;;;;;;12.25;2.88;;;;;;;;;;5034144;28;20906;-79
2023/03/16 01:06:11;;;;;;;10.00;3.00;;;;;;;;;;5020978;28;20446;-79
2023/03/16 01:08:39;;;;;;;10.35;2.83;;;;;;;;;;5039556;28;20420;-78
2023/03/16 01:11:09;;;;;;;8.70;2.60;;;;;;;;;;5022767;28;20411;-78
2023/03/16 01:13:37;;;;;;;11.63;2.78;;;;;;;;;;5029790;28;20420;-79
2023/03/16 01:16:05;;;;;;;10.68;2.85;;;;;;;;;;5028518;28;20776;-79
2023/03/16 01:18:35;;;;;;;8.88;2.60;;;;;;;;;;5023019;28;20898;-79
2023/03/16 01:21:08;;;;;;;12.27;3.10;;;;;;;;;;5030022;28;20918;-80
2023/03/16 01:23:36;;;;;;;10.13;2.70;;;;;;;;;;5035126;28;20429;-79
2023/03/16 01:26:04;;;;;;;11.07;2.55;;;;;;;;;;5039575;28;20426;-79
2023/03/16 01:28:37;;;;;;;8.35;2.40;;;;;;;;;;5038052;28;20438;-80
2023/03/16 01:31:07;;;;;;;10.90;2.75;;;;;;;;;;5027848;28;20425;-79
2023/03/16 01:33:42;;;;;;;9.68;2.47;;;;;;;;;;5024182;28;20504;-80
2023/03/16 01:36:13;;;;;;;10.38;2.70;;;;;;;;;;5029175;28;20415;-79
2023/03/16 01:39:07;;;;;;;8.43;2.67;;;;;;;;;;5022061;28;20428;-79
2023/03/16 01:41:44;;;;;;;11.48;2.75;;;;;;;;;;5038781;28;20422;-79
2023/03/16 01:44:13;;;;;;;13.63;2.70;;;;;;;;;;5039082;28;20423;-79
2023/03/16 01:46:46;;;;;;;7.00;2.58;;;;;;;;;;5027844;28;20986;-79
2023/03/16 01:49:19;;;;;;;8.55;2.42;;;;;;;;;;5036326;28;20429;-79
2023/03/16 01:51:55;;;;;;;9.60;2.58;;;;;;;;;;5022965;28;20908;-80
2023/03/16 01:54:31;;;;;;;12.63;2.78;;;;;;;;;;5020604;28;20415;-79
2023/03/16 01:57:06;;;;;;;10.93;2.50;;;;;;;;;;5037733;28;20543;-79
2023/03/16 01:59:35;;;;;;;8.07;2.67;;;;;;;;;;5042909;28;20742;-79
2023/03/16 02:02:03;;;;;;;6.45;2.35;;;;;;;;;;5019459;28;20444;-79
2023/03/16 02:04:40;;;;;;;8.65;2.50;;;;;;;;;;5027258;28;20797;-79
2023/03/16 02:07:18;;;;;;;7.45;2.50;;;;;;;;;;5039973;28;20431;-80
2023/03/16 02:09:48;;;;;;;9.10;2.33;;;;;;;;;;5038430;28;20438;-79
2023/03/16 02:12:17;;;;;;;9.95;2.55;;;;;;;;;;5041385;28;20423;-80
2023/03/16 02:14:51;;;;;;;9.40;2.50;;;;;;;;;;5028166;28;21234;-79
2023/03/16 02:17:25;;;;;;;7.43;2.38;;;;;;;;;;5021107;28;20425;-80
2023/03/16 02:20:15;;;;;;;10.05;2.65;;;;;;;;;;5037581;28;20416;-79
2023/03/16 02:22:48;;;;;;;11.13;2.70;;;;;;;;;;5037217;28;20762;-79
2023/03/16 02:25:18;;;;;;;8.57;2.67;;;;;;;;;;5027023;28;20435;-79
2023/03/16 02:27:51;;;;;;;8.80;2.63;;;;;;;;;;5021592;28;20419;-79
2023/03/16 02:30:26;;;;;;;9.23;2.58;;;;;;;;;;5036692;28;20411;-79
2023/03/16 02:32:58;;;;;;;7.55;2.70;;;;;;;;;;5024186;28;20438;-79
2023/03/16 02:35:31;;;;;;;10.85;2.67;;;;;;;;;;5021351;28;20427;-79
2023/03/16 02:38:00;;;;;;;8.70;2.63;;;;;;;;;;5028366;28;20429;-79
2023/03/16 02:40:33;;;;;;;8.25;2.28;;;;;;;;;;5035882;28;20424;-80
2023/03/16 02:43:13;;;;;;;10.60;2.53;;;;;;;;;;5024804;28;20441;-79
2023/03/16 02:45:58;;;;;;;10.80;2.72;;;;;;;;;;5038341;28;20924;-80
2023/03/16 02:48:34;;;;;;;8.67;2.87;;;;;;;;;;5022059;28;20419;-80
2023/03/16 02:51:07;;;;;;;8.25;2.45;;;;;;;;;;5037076;28;20916;-79
2023/03/16 02:53:35;;;;;;;9.63;2.45;;;;;;;;;;5027706;28;20427;-79
2023/03/16 02:56:03;;;;;;;8.77;2.42;;;;;;;;;;5037152;28;20812;-79
2023/03/16 02:58:34;;;;;;;9.13;2.70;;;;;;;;;;5020981;28;20415;-79
2023/03/16 03:01:13;;;;;;;8.20;2.50;;;;;;;;;;5017821;28;20427;-80
2023/03/16 03:03:46;;;;;;;8.38;2.53;;;;;;;;;;5018102;28;20796;-79
2023/03/16 03:06:19;;;;;;;7.65;2.90;;;;;;;;;;5022540;28;20430;-80
2023/03/16 03:08:52;;;;;;;6.22;2.42;;;;;;;;;;5036265;28;20426;-79
2023/03/16 03:11:25;;;;;;;7.75;2.45;;;;;;;;;;5027364;28;20415;-79
2023/03/16 03:13:57;;;;;;;9.90;2.67;;;;;;;;;;5037288;28;20436;-79
2023/03/16 03:16:29;;;;;;;9.10;2.70;;;;;;;;;;5038332;28;20430;-79
2023/03/16 03:18:57;;;;;;;8.60;2.80;;;;;;;;;;5026190;28;20430;-80
2023/03/16 03:21:34;;;;;;;11.57;2.90;;;;;;;;;;5027480;28;20411;-79
2023/03/16 03:24:07;;;;;;;9.40;3.07;;;;;;;;;;5019331;28;20417;-80
2023/03/16 03:26:36;;;;;;;8.18;2.75;;;;;;;;;;5021618;28;20429;-79
2023/03/16 03:29:15;;;;;;;9.30;3.15;;;;;;;;;;5018526;28;20417;-80
2023/03/16 03:31:49;;;;;;;10.50;2.95;;;;;;;;;;5019838;28;20424;-80
2023/03/16 03:34:22;;;;;;;9.38;3.22;;;;;;;;;;5026366;28;20443;-79
2023/03/16 03:36:55;;;;;;;9.82;3.50;;;;;;;;;;5030853;28;20427;-79
2023/03/16 03:39:29;;;;;;;9.05;3.25;;;;;;;;;;5017914;28;20411;-80
2023/03/16 03:42:02;;;;;;;6.72;3.10;;;;;;;;;;5024214;28;20431;-81
2023/03/16 03:44:33;;;;;;;10.02;3.28;;;;;;;;;;5027469;28;20414;-79
2023/03/16 03:47:02;;;;;;;9.07;3.13;;;;;;;;;;5036937;28;20526;-80
2023/03/16 03:49:35;;;;;;;11.60;3.33;;;;;;;;;;5023156;28;20738;-80
2023/03/16 03:52:08;;;;;;;10.25;3.22;;;;;;;;;;5026436;28;20417;-80
2023/03/16 03:54:41;;;;;;;11.25;3.10;;;;;;;;;;5025473;28;20853;-80
2023/03/16 03:57:17;;;;;;;12.40;3.58;;;;;;;;;;5035091;28;20416;-80
2023/03/16 03:59:50;;;;;;;10.23;3.30;;;;;;;;;;5026767;28;20442;-79
2023/03/16 04:02:40;;;;;;;9.50;3.22;;;;;;;;;;5027297;28;20422;-80
2023/03/16 04:05:24;;;;;;;11.07;3.38;;;;;;;;;;5036529;28;20426;-80
2023/03/16 04:07:53;;;;;;;11.40;2.90;;;;;;;;;;5018399;28;20433;-80
2023/03/16 04:10:21;;;;;;;11.20;3.40;;;;;;;;;;5023223;28;20417;-81
2023/03/16 04:12:49;;;;;;;10.32;3.60;;;;;;;;;;5018674;28;20408;-80
2023/03/16 04:15:17;;;;;;;13.00;3.67;;;;;;;;;;5036479;28;20429;-80
2023/03/16 04:18:26;;;;;;;12.13;3.40;;;;;;;;;;5013147;28;20930;-80
2023/03/16 04:21:00;;;;;;;9.05;3.40;;;;;;;;;;5034147;28;20425;-80
2023/03/16 04:23:33;;;;;;;11.35;3.22;;;;;;;;;;5033965;28;20783;-80
2023/03/16 04:26:06;;;;;;;9.02;2.90;;;;;;;;;;5018060;28;20415;-80
2023/03/16 04:28:42;;;;;;;10.20;2.80;;;;;;;;;;5025622;28;20930;-80
2023/03/16 04:31:18;;;;;;;9.23;2.92;;;;;;;;;;5032694;28;20459;-80
2023/03/16 04:33:53;;;;;;;10.60;3.97;;;;;;;;;;5036560;28;20428;-80
2023/03/16 04:36:26;;;;;;;9.00;3.20;;;;;;;;;;5033566;28;20967;-80
2023/03/16 04:38:59;;;;;;;11.10;3.25;;;;;;;;;;5033777;28;20771;-80
2023/03/16 04:41:32;;;;;;;11.13;3.78;;;;;;;;;;5039422;28;20420;-79
2023/03/16 04:44:11;;;;;;;9.93;3.13;;;;;;;;;;5031592;28;20413;-80
2023/03/16 04:46:44;;;;;;;12.52;3.38;;;;;;;;;;5029616;28;20413;-80
2023/03/16 04:49:19;;;;;;;8.50;3.17;;;;;;;;;;5029902;28;20419;-80
2023/03/16 04:51:52;;;;;;;9.13;3.47;;;;;;;;;;5024840;28;20433;-80
2023/03/16 04:54:22;;;;;;;8.63;3.22;;;;;;;;;;5028542;28;20938;-80
2023/03/16 04:56:51;;;;;;;9.77;3.17;;;;;;;;;;5030369;28;20416;-80
2023/03/16 04:59:37;;;;;;;9.93;3.10;;;;;;;;;;5019754;28;22335;-81
2023/03/16 05:02:29;;;;;;;13.48;3.55;;;;;;;;;;5033464;28;20419;-80
2023/03/16 05:05:01;;;;;;;12.03;3.60;;;;;;;;;;5028836;28;20428;-80
2023/03/16 05:07:35;;;;;;;8.98;3.30;;;;;;;;;;5028949;28;20432;-81
2023/03/16 05:10:04;;;;;;;7.57;3.13;;;;;;;;;;5025317;28;20459;-80
2023/03/16 05:12:38;;;;;;;10.07;3.97;;;;;;;;;;5025366;28;20406;-80
2023/03/16 05:15:12;;;;;;;10.43;3.88;;;;;;;;;;5039457;28;20745;-79
2023/03/16 05:17:55;;;;;;;9.57;3.50;;;;;;;;;;5038812;28;20428;-80
2023/03/16 05:20:24;;;;;;;9.23;3.15;;;;;;;;;;5039410;28;20429;-80
2023/03/16 05:23:00;;;;;;;10.77;2.87;;;;;;;;;;5040775;28;20419;-79
2023/03/16 05:25:34;;;;;;;10.02;3.10;;;;;;;;;;5037183;28;20455;-80
2023/03/16 05:28:05;;;;;;;9.75;2.95;;;;;;;;;;5029713;28;20425;-80
2023/03/16 05:30:50;;;;;;;10.93;3.40;;;;;;;;;;5024539;28;20418;-79
2023/03/16 05:33:23;;;;;;;10.23;3.30;;;;;;;;;;5024923;28;20429;-81
2023/03/16 05:36:03;;;;;;;11.23;3.83;;;;;;;;;;5029775;28;20422;-79
2023/03/16 05:38:32;;;;;;;12.32;3.97;;;;;;;;;;5036273;28;20418;-81
2023/03/16 05:41:03;;;;;;;10.75;3.03;;;;;;;;;;5037391;28;20869;-81
2023/03/16 05:43:46;;;;;;;10.43;3.35;;;;;;;;;;5019547;28;20872;-80
2023/03/16 05:46:20;;;;;;;9.18;3.13;;;;;;;;;;5039770;28;20430;-80
2023/03/16 05:48:53;;;;;;;9.80;2.97;;;;;;;;;;5038806;28;20816;-80
2023/03/16 05:51:25;;;;;;;8.93;3.08;;;;;;;;;;5029166;28;20438;-79
2023/03/16 05:53:59;;;;;;;9.60;2.72;;;;;;;;;;5039060;28;20726;-80
2023/03/16 05:56:38;;;;;;;8.50;2.60;;;;;;;;;;5026573;28;20769;-81
2023/03/16 05:59:06;;;;;;;7.70;2.60;;;;;;;;;;5021074;28;20419;-80
2023/03/16 06:01:34;;;;;;;10.70;2.75;;;;;;;;;;5032465;28;20516;-81
2023/03/16 06:04:04;;;;;;;9.48;3.00;;;;;;;;;;5019397;28;20443;-80
2023/03/16 06:06:41;;;;;;;10.23;2.67;;;;;;;;;;5037426;28;20421;-80
2023/03/16 06:09:26;;;;;;;6.10;2.40;;;;;;;;;;5034097;28;20930;-80
2023/03/16 06:11:54;;;;;;;9.27;3.03;;;;;;;;;;5024731;28;20451;-80
2023/03/16 06:14:23;;;;;;;7.80;2.50;;;;;;;;;;5036606;28;20431;-80
2023/03/16 06:16:52;;;;;;;9.35;3.10;;;;;;;;;;5037043;28;20915;-80
2023/03/16 06:19:25;;;;;;;9.25;2.60;;;;;;;;;;5036916;28;20429;-81
2023/03/16 06:22:02;;;;;;;10.03;2.90;;;;;;;;;;5027399;28;20434;-82
2023/03/16 06:24:34;;;;;;;7.10;2.92;;;;;;;;;;5021173;28;20427;-81
2023/03/16 06:27:07;;;;;;;7.75;2.70;;;;;;;;;;5035397;28;20433;-80
2023/03/16 06:29:56;;;;;;;10.23;3.10;;;;;;;;;;5037611;28;20839;-80
2023/03/16 06:32:31;;;;;;;7.10;2.70;;;;;;;;;;5037161;28;20423;-80
2023/03/16 06:35:05;;;;;;;10.57;2.83;;;;;;;;;;5032617;28;20440;-80
2023/03/16 06:37:35;;;;;;;8.40;2.78;;;;;;;;;;5035482;28;20783;-81
2023/03/16 06:40:25;;;;;;;9.48;2.83;;;;;;;;;;5025949;28;20797;-81
2023/03/16 06:42:58;;;;;;;8.50;3.08;;;;;;;;;;5022099;28;21149;-80
2023/03/16 06:45:26;;;;;;;9.68;2.95;;;;;;;;;;5024905;28;20435;-80
2023/03/16 06:47:59;;;;;;;8.77;2.70;;;;;;;;;;5020396;28;20434;-81
2023/03/16 06:50:32;;;;;;;8.27;2.83;;;;;;;;;;5038185;28;20422;-80
2023/03/16 06:53:01;;;;;;;7.85;2.78;;;;;;;;;;5024335;28;20435;-80
2023/03/16 06:55:36;;;;;;;9.85;3.03;;;;;;;;;;5036878;28;20439;-79
2023/03/16 06:58:09;;;;;;;12.68;3.05;;;;;;;;;;5033399;28;20433;-80
2023/03/16 07:00:41;;;;;;;7.88;3.33;;;;;;;;;;5037008;28;20436;-80
2023/03/16 07:03:09;;;;;;;10.75;3.10;;;;;;;;;;5021061;28;20427;-80
2023/03/16 07:05:48;;;;;;;10.80;3.35;;;;;;;;;;5022324;28;20431;-80
2023/03/16 07:08:17;;;;;;;11.40;3.38;;;;;;;;;;5037670;28;20435;-80
2023/03/16 07:10:50;;;;;;;10.88;3.45;;;;;;;;;;5037011;28;20465;-79
2023/03/16 07:13:23;;;;;;;8.82;3.40;;;;;;;;;;5034681;28;20428;-80
2023/03/16 07:15:56;;;;;;;10.70;3.90;;;;;;;;;;5035127;28;20969;-79
2023/03/16 07:18:30;;;;;;;9.82;3.38;;;;;;;;;;5036270;28;20431;-80
2023/03/16 07:21:03;;;;;;;9.98;3.55;;;;;;;;;;5018904;28;20417;-79
2023/03/16 07:23:37;;;;;;;10.63;3.70;;;;;;;;;;5018887;28;20442;-79
2023/03/16 07:26:10;;;;;;;9.93;3.53;;;;;;;;;;5019406;28;20422;-79
2023/03/16 07:28:48;;;;;;;9.25;3.58;;;;;;;;;;5037044;28;20432;-79
2023/03/16 07:31:21;;;;;;;14.50;3.70;;;;;;;;;;5034465;28;20435;-79
2023/03/16 07:33:57;;;;;;;7.97;3.00;;;;;;;;;;5035983;28;20446;-79
2023/03/16 07:36:52;;;;;;;13.40;3.65;;;;;;;;;;5018366;28;20424;-81
2023/03/16 07:39:31;;;;;;;8.23;2.90;;;;;;;;;;5034561;28;20423;-79
2023/03/16 07:42:09;;;;;;;8.25;2.78;;;;;;;;;;5033525;28;20433;-80
2023/03/16 07:45:09;;;;;;;11.48;2.90;;;;;;;;;;5018460;28;20943;-79
2023/03/16 07:47:43;;;;;;;8.47;2.70;;;;;;;;;;5018732;28;20432;-80
2023/03/16 07:50:32;;;;;;;11.00;2.90;;;;;;;;;;5034695;28;20507;-81
2023/03/16 07:53:00;;;;;;;6.43;2.60;;;;;;;;;;5019120;28;20457;-80
2023/03/16 07:55:30;;;;;;;8.18;2.63;;;;;;;;;;5020242;28;20434;-80
2023/03/16 07:58:05;;;;;;;9.20;2.50;;;;;;;;;;5031888;28;20439;-81
2023/03/16 08:00:41;;;;;;;7.47;2.25;;;;;;;;;;5018075;28;20419;-78
2023/03/16 08:03:09;;;;;;;8.88;2.60;;;;;;;;;;5022741;28;20442;-80
2023/03/16 08:05:36;;;;;;;8.10;2.70;;;;;;;;;;5021613;28;20437;-79
2023/03/16 08:08:14;;;;;;;7.85;2.35;;;;;;;;;;5015898;28;20428;-79
2023/03/16 08:10:51;;;;;;;9.10;2.50;;;;;;;;;;5017721;28;20436;-80
2023/03/16 08:13:31;;;;;;;11.90;2.80;;;;;;;;;;5022419;28;20440;-79
2023/03/16 08:16:09;;;;;;;6.57;2.40;;;;;;;;;;5033608;28;21124;-79
2023/03/16 08:18:46;;;;;;;7.75;2.50;;;;;;;;;;5023134;28;20776;-79
2023/03/16 08:21:15;;;;;;;7.03;2.65;;;;;;;;;;5033253;28;20791;-80
2023/03/16 08:23:49;;;;;;;7.78;2.25;;;;;;;;;;5018188;28;20440;-80
2023/03/16 08:26:25;;;;;;;6.22;2.15;;;;;;;;;;5028850;28;20431;-79
2023/03/16 08:29:01;;;;;;;6.97;2.17;;;;;;;;;;5035711;28;20441;-81
2023/03/16 08:31:37;;;;;;;7.03;2.10;;;;;;;;;;4984276;28;22116;-80
2023/03/16 08:34:20;;;;;;;8.55;1.92;;;;;;;;;;4992162;28;20442;-79
2023/03/16 08:36:54;;;;;;;6.30;1.90;;;;;;;;;;4985170;28;20432;-80
2023/03/16 08:39:22;;;;;;;5.88;2.00;;;;;;;;;;4979655;28;20428;-79
2023/03/16 08:41:56;;;;;;;6.70;1.98;;;;;;;;;;4979534;28;20436;-81
2023/03/16 08:44:36;;;;;;;5.35;2.08;;;;;;;;;;4996640;28;20428;-79
2023/03/16 08:47:10;;;;;;;5.88;1.92;;;;;;;;;;4981400;28;20789;-79
2023/03/16 08:49:44;;;;;;;7.25;1.98;;;;;;;;;;4988117;28;20443;-79
2023/03/16 08:52:18;;;;;;;7.65;2.33;;;;;;;;;;4979960;28;20428;-80
2023/03/16 08:54:53;;;;;;;7.82;2.40;;;;;;;;;;4988036;28;20435;-79
2023/03/16 08:57:28;;;;;;;7.18;1.85;;;;;;;;;;4982264;28;20820;-79
2023/03/16 09:00:03;;;;;;;4.70;1.80;;;;;;;;;;4981968;28;20428;-81
2023/03/16 09:02:31;;;;;;;8.97;2.30;;;;;;;;;;4981662;28;20433;-80
2023/03/16 09:04:59;;;;;;;7.30;2.05;;;;;;;;;;4982863;28;20459;-79
2023/03/16 09:07:28;;;;;;;6.55;2.05;;;;;;;;;;4981362;28;21651;-79
2023/03/16 09:10:00;;;;;;;7.13;2.13;;;;;;;;;;4988747;28;20805;-80
2023/03/16 09:12:29;;;;;;;5.53;2.13;;;;;;;;;;4980213;28;21175;-78
2023/03/16 09:15:02;;;;;;;6.78;2.15;;;;;;;;;;4980829;28;20447;-79
2023/03/16 09:17:30;;;;;;;7.28;2.03;;;;;;;;;;4976807;28;20452;-80
2023/03/16 09:20:04;;;;;;;6.03;2.00;;;;;;;;;;4978589;28;20441;-80
2023/03/16 09:22:32;;;;;;;6.30;1.95;;;;;;;;;;4978961;28;20447;-79
2023/03/16 09:25:06;;;;;;;6.13;1.80;;;;;;;;;;4987591;28;20992;-80
2023/03/16 09:27:35;;;;;;;6.47;2.05;;;;;;;;;;4981802;28;20439;-80
2023/03/16 09:30:09;;;;;;;11.68;3.60;;;;;;;;;;4985509;28;20512;-79
2023/03/16 09:32:42;;;;;;;7.18;2.35;;;;;;;;;;4973809;28;20431;-79
2023/03/16 09:35:14;;;;;;;8.35;2.35;;;;;;;;;;4978861;28;20903;-78
2023/03/16 09:37:47;;;;;;;5.30;2.10;;;;;;;;;;4975153;28;20433;-79
2023/03/16 09:40:21;;;;;;;7.50;2.03;;;;;;;;;;4974649;28;21008;-79
2023/03/16 09:42:56;;;;;;;6.68;2.08;;;;;;;;;;4980311;28;20447;-80
2023/03/16 09:45:26;;;;;;;7.82;2.20;;;;;;;;;;4978253;28;20436;-80
2023/03/16 09:48:02;;;;;;;6.73;1.97;;;;;;;;;;4979493;28;20446;-79
2023/03/16 09:50:37;;;;;;;7.13;2.28;;;;;;;;;;4979137;28;20441;-80
2023/03/16 09:53:08;;;;;;;7.85;2.00;;;;;;;;;;4981368;28;20428;-79
2023/03/16 09:55:42;;;;;;;8.55;2.00;;;;;;;;;;4982690;28;20437;-79
2023/03/16 09:58:14;;;;;;;6.55;1.83;;;;;;;;;;4979388;28;20430;-80
2023/03/16 10:00:51;;;;;;;7.95;1.90;;;;;;;;;;4976558;28;21063;-79
2023/03/16 10:03:37;;;;;;;6.20;1.83;;;;;;;;;;4970387;28;20445;-80
2023/03/16 10:06:11;;;;;;;7.97;1.70;;;;;;;;;;4981620;28;20451;-78
2023/03/16 10:08:45;;;;;;;4.60;1.55;;;;;;;;;;4986102;28;20428;-80
2023/03/16 10:11:23;;;;;;;5.82;1.65;;;;;;;;;;5003631;28;20445;-80
2023/03/16 10:14:01;;;;;;;4.35;1.55;;;;;;;;;;4984469;28;20436;-79
2023/03/16 10:16:32;;;;;;;5.50;1.40;;;;;;;;;;4973655;28;20440;-79
2023/03/16 10:19:10;;;;;;;6.28;1.42;;;;;;;;;;4970842;28;20802;-79
2023/03/16 10:21:43;;;;;;;5.72;1.67;;;;;;;;;;4976627;28;20430;-80
2023/03/16 10:24:16;;;;;;;5.40;1.67;;;;;;;;;;4980039;28;20433;-80
2023/03/16 10:26:48;;;;;;;6.13;1.33;;;;;;;;;;4984191;28;20422;-79
2023/03/16 10:29:22;;;;;;;4.68;1.23;;;;;;;;;;4978186;28;21182;-80
2023/03/16 10:32:00;;;;;;;5.40;1.13;;;;;;;;;;4954571;28;21053;-79
2023/03/16 10:34:29;;;;;;;6.22;1.00;;;;;;;;;;4978962;28;20429;-79
2023/03/16 10:37:04;;;;;;;3.05;0.85;;;;;;;;;;4971073;28;20442;-80
2023/03/16 10:39:41;;;;;;;3.63;1.05;;;;;;;;;;4975776;28;20432;-79
2023/03/16 10:42:15;;;;;;;2.60;0.80;;;;;;;;;;4972654;28;20428;-78
2023/03/16 10:44:56;;;;;;;3.88;1.00;;;;;;;;;;4976117;28;20442;-80
2023/03/16 10:47:30;;;;;;;4.85;0.90;;;;;;;;;;4973122;28;20898;-79
2023/03/16 10:50:13;;;;;;;4.28;0.90;;;;;;;;;;4969847;28;20430;-80
2023/03/16 10:52:46;;;;;;;4.13;0.98;;;;;;;;;;4970827;28;20429;-79
2023/03/16 10:55:20;;;;;;;2.97;0.82;;;;;;;;;;4970339;28;20442;-78
2023/03/16 10:57:55;;;;;;;2.72;0.73;;;;;;;;;;4973564;28;20448;-79
2023/03/16 11:00:27;;;;;;;3.08;0.70;;;;;;;;;;4972475;28;20447;-80
2023/03/16 11:02:56;;;;;;;3.83;0.90;;;;;;;;;;4977294;28;20960;-80
2023/03/16 11:05:29;;;;;;;3.22;0.82;;;;;;;;;;4977123;28;20429;-79
2023/03/16 11:08:01;;;;;;;3.42;0.80;;;;;;;;;;4980802;28;20413;-79
2023/03/16 11:10:35;;;;;;;3.53;0.82;;;;;;;;;;4973709;28;20438;-80
2023/03/16 11:13:11;;;;;;;4.70;0.80;;;;;;;;;;4972907;28;21134;-81
2023/03/16 11:15:44;;;;;;;2.10;0.73;;;;;;;;;;4974654;28;20432;-80
2023/03/16 11:18:23;;;;;;;2.42;0.73;;;;;;;;;;4976813;28;20820;-82
2023/03/16 11:20:58;;;;;;;6.30;1.70;;;;;;;;;;4979031;28;20443;-80
2023/03/16 11:23:29;;;;;;;4.72;1.35;;;;;;;;;;4990114;28;20444;-80
2023/03/16 11:25:59;;;;;;;4.63;1.10;;;;;;;;;;4973704;28;20444;-80
2023/03/16 11:28:34;;;;;;;2.73;0.90;;;;;;;;;;4979310;28;20434;-79
2023/03/16 11:31:19;;;;;;;2.63;0.75;;;;;;;;;;4963501;28;20441;-80
2023/03/16 11:33:47;;;;;;;4.80;1.17;;;;;;;;;;4969508;28;20892;-78
2023/03/16 11:36:28;;;;;;;2.35;0.63;;;;;;;;;;4972337;28;20428;-79
2023/03/16 11:39:05;;;;;;;3.15;0.70;;;;;;;;;;4971576;28;20441;-79
2023/03/16 11:41:45;;;;;;;1.90;0.70;;;;;;;;;;4977931;28;21836;-80
2023/03/16 11:44:23;;;;;;;2.50;0.68;;;;;;;;;;4971367;28;20440;-79
2023/03/16 11:47:03;;;;;;;3.55;0.70;;;;;;;;;;4976215;28;20434;-80
2023/03/16 11:49:50;;;;;;;1.23;0.50;;;;;;;;;;4971694;28;20428;-80
2023/03/16 11:52:25;;;;;;;2.30;0.70;;;;;;;;;;4970670;28;20440;-79
2023/03/16 11:55:01;;;;;;;1.73;0.80;;;;;;;;;;4973229;28;20440;-79
2023/03/16 11:57:34;;;;;;;2.72;0.80;;;;;;;;;;4975357;28;20441;-79
2023/03/16 12:00:17;;;;;;;2.63;1.00;;;;;;;;;;4972280;28;20443;-80
2023/03/16 12:02:54;;;;;;;2.70;0.90;;;;;;;;;;4971369;28;20431;-80
2023/03/16 12:05:38;;;;;;;3.20;1.00;;;;;;;;;;4972424;28;20429;-79
2023/03/16 12:08:13;;;;;;;1.27;0.65;;;;;;;;;;4971758;28;20432;-78
2023/03/16 12:10:48;;;;;;;2.20;0.68;;;;;;;;;;4971268;28;20449;-80
2023/03/16 12:13:29;;;;;;;2.30;0.80;;;;;;;;;;4976625;28;20438;-79
2023/03/16 12:16:05;;;;;;;2.00;0.73;;;;;;;;;;4973878;28;20490;-80
2023/03/16 12:18:43;;;;;;;2.27;0.77;;;;;;;;;;4972317;28;20438;-78
2023/03/16 12:21:13;;;;;;;1.90;0.75;;;;;;;;;;4976880;28;20439;-78
2023/03/16 12:23:51;;;;;;;1.88;0.70;;;;;;;;;;4975745;28;20445;-79
2023/03/16 12:26:27;;;;;;;2.13;0.70;;;;;;;;;;4974672;28;20439;-78
2023/03/16 12:29:04;;;;;;;1.10;0.70;;;;;;;;;;4975421;28;20444;-81
2023/03/16 12:31:37;;;;;;;2.22;0.73;;;;;;;;;;4949595;28;20461;-79
2023/03/16 12:34:13;;;;;;;2.60;0.70;;;;;;;;;;4981462;28;20440;-79
2023/03/16 12:37:04;;;;;;;2.58;0.60;;;;;;;;;;4977837;28;20495;-79
2023/03/16 12:39:44;;;;;;;2.70;0.70;;;;;;;;;;4972205;28;20774;-78
2023/03/16 12:42:25;;;;;;;2.35;0.80;;;;;;;;;;4988532;28;20462;-79
2023/03/16 12:45:02;;;;;;;1.55;0.70;;;;;;;;;;4969624;28;20444;-79
2023/03/16 12:47:41;;;;;;;4.93;0.95;;;;;;;;;;4976907;28;20438;-79
2023/03/16 12:50:17;;;;;;;1.80;0.73;;;;;;;;;;4974601;28;20983;-79
2023/03/16 12:52:46;;;;;;;2.53;0.70;;;;;;;;;;4974794;28;20433;-79
2023/03/16 12:55:15;;;;;;;2.95;1.00;;;;;;;;;;4972335;28;20433;-78
2023/03/16 12:57:43;;;;;;;2.60;0.80;;;;;;;;;;4967970;28;20434;-78
2023/03/16 13:00:17;;;;;;;3.33;0.93;;;;;;;;;;4966348;28;21778;-78
2023/03/16 13:02:49;;;;;;;2.58;0.68;;;;;;;;;;4991489;28;20428;-80
2023/03/16 13:05:30;;;;;;;2.17;0.60;;;;;;;;;;4977682;28;20430;-78
2023/03/16 13:08:07;;;;;;;3.27;0.60;;;;;;;;;;4983504;28;20442;-78
2023/03/16 13:10:40;;;;;;;2.17;0.57;;;;;;;;;;4975961;28;20447;-78
2023/03/16 13:13:10;;;;;;;1.83;0.60;;;;;;;;;;4980813;28;20812;-78
2023/03/16 13:15:46;;;;;;;1.73;0.50;;;;;;;;;;4973944;28;20446;-78
2023/03/16 13:18:21;;;;;;;1.17;0.50;;;;;;;;;;4981354;28;20436;-79
2023/03/16 13:20:52;;;;;;;1.58;0.57;;;;;;;;;;4976329;28;20438;-78
2023/03/16 13:23:22;;;;;;;3.40;0.70;;;;;;;;;;4981320;28;20471;-78
2023/03/16 13:26:10;;;;;;;1.47;0.50;;;;;;;;;;5000821;28;20467;-80
2023/03/16 13:28:38;;;;;;;2.60;0.60;;;;;;;;;;4971617;28;21056;-81
2023/03/16 13:31:24;;;;;;;2.03;0.50;;;;;;;;;;4957538;28;21338;-78
2023/03/16 13:33:54;;;;;;;1.10;0.60;;;;;;;;;;4978132;28;20445;-79
2023/03/16 13:36:24;;;;;;;2.28;0.50;;;;;;;;;;5001870;28;20436;-79
2023/03/16 13:39:02;;;;;;;3.15;0.70;;;;;;;;;;4978657;28;20439;-80
2023/03/16 13:41:35;;;;;;;0.65;0.43;;;;;;;;;;4979500;28;20974;-78
2023/03/16 13:44:04;;;;;;;0.93;0.50;;;;;;;;;;4995465;28;20417;-79
2023/03/16 13:46:32;;;;;;;1.05;0.52;;;;;;;;;;4985811;28;20443;-79
2023/03/16 13:49:04;;;;;;;2.80;0.60;;;;;;;;;;4979457;28;20768;-79
2023/03/16 13:51:39;;;;;;;1.60;0.60;;;;;;;;;;4975162;28;20453;-78
2023/03/16 13:54:18;;;;;;;1.63;0.60;;;;;;;;;;4995336;28;20908;-78
2023/03/16 13:56:52;;;;;;;2.03;0.60;;;;;;;;;;4999892;28;20942;-78
2023/03/16 13:59:21;;;;;;;2.80;0.77;;;;;;;;;;4976194;28;20434;-80
2023/03/16 14:01:56;;;;;;;2.20;0.50;;;;;;;;;;4980177;28;20445;-79
2023/03/16 14:04:30;;;;;;;3.08;1.00;;;;;;;;;;4993521;28;20838;-78
2023/03/16 14:07:00;;;;;;;3.05;0.93;;;;;;;;;;4972347;28;20455;-78
2023/03/16 14:09:34;;;;;;;2.08;0.68;;;;;;;;;;5000014;28;20432;-79
2023/03/16 14:12:13;;;;;;;1.65;0.65;;;;;;;;;;5001672;28;20440;-79
2023/03/16 14:14:48;;;;;;;2.75;0.80;;;;;;;;;;5003130;28;20436;-78
2023/03/16 14:17:18;;;;;;;5.07;0.90;;;;;;;;;;4996491;28;20452;-78
2023/03/16 14:19:47;;;;;;;7.25;1.60;;;;;;;;;;4971792;28;21868;-78
2023/03/16 14:22:22;;;;;;;5.32;1.60;;;;;;;;;;4976376;28;20428;-78
2023/03/16 14:24:58;;;;;;;11.45;3.08;;;;;;;;;;4982766;28;20426;-78
2023/03/16 14:27:32;;;;;;;4.85;1.30;;;;;;;;;;4973802;28;20436;-80
2023/03/16 14:30:14;;;;;;;3.80;1.40;;;;;;;;;;4973683;28;20447;-79
2023/03/16 14:32:53;;;;;;;5.00;1.55;;;;;;;;;;4974530;28;20813;-79
2023/03/16 14:35:21;;;;;;;3.67;1.10;;;;;;;;;;4977143;28;20431;-77
2023/03/16 14:37:56;;;;;;;2.47;0.90;;;;;;;;;;5001656;28;20437;-78
2023/03/16 14:40:30;;;;;;;2.78;1.00;;;;;;;;;;4991177;28;20437;-79
2023/03/16 14:43:04;;;;;;;3.35;1.10;;;;;;;;;;4981184;28;20444;-78
2023/03/16 14:45:37;;;;;;;2.13;0.90;;;;;;;;;;5003181;28;20432;-79
2023/03/16 14:48:15;;;;;;;4.85;1.40;;;;;;;;;;4970966;28;20489;-79
2023/03/16 14:50:51;;;;;;;3.57;1.00;;;;;;;;;;4979093;28;20461;-80
2023/03/16 14:53:27;;;;;;;2.35;0.90;;;;;;;;;;4995988;28;20914;-79
2023/03/16 14:56:00;;;;;;;2.57;0.70;;;;;;;;;;4980693;28;20452;-79
2023/03/16 14:58:35;;;;;;;3.15;0.88;;;;;;;;;;4985313;28;20448;-79
2023/03/16 15:01:13;;;;;;;3.20;0.80;;;;;;;;;;4976872;28;20440;-78
2023/03/16 15:03:46;;;;;;;1.85;0.60;;;;;;;;;;4979027;28;20447;-80
2023/03/16 15:06:14;;;;;;;3.65;0.90;;;;;;;;;;4975367;28;20791;-79
2023/03/16 15:08:49;;;;;;;1.48;0.60;;;;;;;;;;4985727;28;20440;-79
2023/03/16 15:11:23;;;;;;;2.83;0.82;;;;;;;;;;4973371;28;20477;-78
2023/03/16 15:14:13;;;;;;;1.33;0.70;;;;;;;;;;4978193;28;20440;-79
2023/03/16 15:16:41;;;;;;;2.75;1.13;;;;;;;;;;4973843;28;20437;-79
2023/03/16 15:19:09;;;;;;;2.28;0.80;;;;;;;;;;4974464;28;20964;-78
2023/03/16 15:21:42;;;;;;;3.20;0.90;;;;;;;;;;4974761;28;20447;-79